sensor_id;sensor_type;location;lat;lon;timestamp;temperature;humidity
21316;DHT22;10817;55.820;13.030;2024-03-08T00:01:21;-3.00;99.90
21316;DHT22;10817;55.820;13.030;2024-03-08T00:03:49;-3.00;99.90
21316;DHT22;10817;55.820;13.030;2024-03-08T00:06:17;-3.10;99.90
21316;DHT22;10817;55.820;13.030;2024-03-08T00:08:46;-2.90;99.90
21316;DHT22;10817;55.820;13.030;2024-03-08T00:11:13;-2.90;99.90
21316;DHT22;10817;55.820;13.030;2024-03-08T00:13:40;-2.90;99.90
21316;DHT22;10817;55.820;13.030;2024-03-08T00:16:07;-3.00;99.90
21316;DHT22;10817;55.820;13.030;2024-03-08T00:18:34;-3.00;99.90
21316;DHT22;10817;55.820;13.030;2024-03-08T00:21:02;-3.00;99.90
21316;DHT22;10817;55.820;13.030;2024-03-08T00:23:30;-3.10;99.90
21316;DHT22;10817;55.820;13.030;2024-03-08T00:26:00;-3.20;99.90
21316;DHT22;10817;55.820;13.030;2024-03-08T00:28:29;-3.10;99.90
21316;DHT22;10817;55.820;13.030;2024-03-08T00:30:56;-3.20;99.90
21316;DHT22;10817;55.820;13.030;2024-03-08T00:33:23;-3.30;99.90
21316;DHT22;10817;55.820;13.030;2024-03-08T00:35:50;-3.30;99.90
21316;DHT22;10817;55.820;13.030;2024-03-08T00:38:16;-3.30;99.90
21316;DHT22;10817;55.820;13.030;2024-03-08T00:40:44;-3.30;99.90
21316;DHT22;10817;55.820;13.030;2024-03-08T00:43:13;-3.40;99.90
21316;DHT22;10817;55.820;13.030;2024-03-08T00:45:41;-3.40;99.90
21316;DHT22;10817;55.820;13.030;2024-03-08T00:48:08;-3.30;99.90
21316;DHT22;10817;55.820;13.030;2024-03-08T00:50:36;-3.30;99.90
21316;DHT22;10817;55.820;13.030;2024-03-08T00:53:04;-3.10;99.90
21316;DHT22;10817;55.820;13.030;2024-03-08T00:55:31;-3.20;99.90
21316;DHT22;10817;55.820;13.030;2024-03-08T00:57:59;-3.10;99.90
21316;DHT22;10817;55.820;13.030;2024-03-08T01:00:27;-3.40;99.90
21316;DHT22;10817;55.820;13.030;2024-03-08T01:02:54;-3.30;99.90
21316;DHT22;10817;55.820;13.030;2024-03-08T01:05:21;-3.30;99.90
21316;DHT22;10817;55.820;13.030;2024-03-08T01:07:57;-2.80;99.90
21316;DHT22;10817;55.820;13.030;2024-03-08T01:10:30;-3.10;99.90
21316;DHT22;10817;55.820;13.030;2024-03-08T01:13:04;-0.80;99.90
21316;DHT22;10817;55.820;13.030;2024-03-08T01:15:46;-3.10;99.90
21316;DHT22;10817;55.820;13.030;2024-03-08T01:18:16;-3.20;99.90
21316;DHT22;10817;55.820;13.030;2024-03-08T01:20:44;-3.40;99.90
21316;DHT22;10817;55.820;13.030;2024-03-08T01:23:12;-3.40;99.90
21316;DHT22;10817;55.820;13.030;2024-03-08T01:25:39;-3.00;99.90
21316;DHT22;10817;55.820;13.030;2024-03-08T01:28:07;-3.60;99.90
21316;DHT22;10817;55.820;13.030;2024-03-08T01:30:35;-3.70;99.90
21316;DHT22;10817;55.820;13.030;2024-03-08T01:33:04;-3.10;99.90
21316;DHT22;10817;55.820;13.030;2024-03-08T01:35:31;-3.80;99.90
21316;DHT22;10817;55.820;13.030;2024-03-08T01:38:00;-3.80;99.90
21316;DHT22;10817;55.820;13.030;2024-03-08T01:40:27;-3.60;99.90
21316;DHT22;10817;55.820;13.030;2024-03-08T01:42:55;-3.60;99.90
21316;DHT22;10817;55.820;13.030;2024-03-08T01:45:22;-3.50;99.90
21316;DHT22;10817;55.820;13.030;2024-03-08T01:47:50;-3.30;99.90
21316;DHT22;10817;55.820;13.030;2024-03-08T01:50:18;-3.30;99.90
21316;DHT22;10817;55.820;13.030;2024-03-08T01:52:45;-3.70;99.90
21316;DHT22;10817;55.820;13.030;2024-03-08T01:55:13;-3.80;99.90
21316;DHT22;10817;55.820;13.030;2024-03-08T01:57:42;-3.50;99.90
21316;DHT22;10817;55.820;13.030;2024-03-08T02:00:11;-3.80;99.90
21316;DHT22;10817;55.820;13.030;2024-03-08T02:02:42;-3.80;99.90
21316;DHT22;10817;55.820;13.030;2024-03-08T02:05:10;-3.90;99.90
21316;DHT22;10817;55.820;13.030;2024-03-08T02:07:40;-3.60;99.90
21316;DHT22;10817;55.820;13.030;2024-03-08T02:10:09;-3.40;99.90
21316;DHT22;10817;55.820;13.030;2024-03-08T02:12:38;-4.10;99.90
21316;DHT22;10817;55.820;13.030;2024-03-08T02:15:06;-4.00;99.90
21316;DHT22;10817;55.820;13.030;2024-03-08T02:17:33;-3.90;99.90
21316;DHT22;10817;55.820;13.030;2024-03-08T02:20:00;-3.80;99.90
21316;DHT22;10817;55.820;13.030;2024-03-08T02:22:30;-3.80;99.90
21316;DHT22;10817;55.820;13.030;2024-03-08T02:24:58;-3.60;99.90
21316;DHT22;10817;55.820;13.030;2024-03-08T02:27:27;-3.90;99.90
21316;DHT22;10817;55.820;13.030;2024-03-08T02:29:56;-4.00;99.90
21316;DHT22;10817;55.820;13.030;2024-03-08T02:32:24;-4.10;99.90
21316;DHT22;10817;55.820;13.030;2024-03-08T02:34:51;-4.10;99.90
21316;DHT22;10817;55.820;13.030;2024-03-08T02:37:22;-4.00;99.90
21316;DHT22;10817;55.820;13.030;2024-03-08T02:39:50;-3.60;99.90
21316;DHT22;10817;55.820;13.030;2024-03-08T02:42:17;-3.40;99.90
21316;DHT22;10817;55.820;13.030;2024-03-08T02:44:44;-3.40;99.90
21316;DHT22;10817;55.820;13.030;2024-03-08T02:47:15;-3.60;99.90
21316;DHT22;10817;55.820;13.030;2024-03-08T02:49:42;-3.70;99.90
21316;DHT22;10817;55.820;13.030;2024-03-08T02:52:08;-3.80;99.90
21316;DHT22;10817;55.820;13.030;2024-03-08T02:54:35;-3.90;99.90
21316;DHT22;10817;55.820;13.030;2024-03-08T02:57:03;-4.00;99.90
21316;DHT22;10817;55.820;13.030;2024-03-08T02:59:33;-4.10;99.90
21316;DHT22;10817;55.820;13.030;2024-03-08T03:02:00;-4.20;99.90
21316;DHT22;10817;55.820;13.030;2024-03-08T03:04:27;-4.20;99.90
21316;DHT22;10817;55.820;13.030;2024-03-08T03:06:54;-4.30;99.90
21316;DHT22;10817;55.820;13.030;2024-03-08T03:09:21;-4.30;99.90
21316;DHT22;10817;55.820;13.030;2024-03-08T03:11:53;-4.30;99.90
21316;DHT22;10817;55.820;13.030;2024-03-08T03:14:21;-4.10;99.90
21316;DHT22;10817;55.820;13.030;2024-03-08T03:16:48;-3.90;99.90
21316;DHT22;10817;55.820;13.030;2024-03-08T03:19:15;-3.80;99.90
21316;DHT22;10817;55.820;13.030;2024-03-08T03:21:42;-4.00;99.90
21316;DHT22;10817;55.820;13.030;2024-03-08T03:24:09;-4.00;99.90
21316;DHT22;10817;55.820;13.030;2024-03-08T03:26:36;-4.10;99.90
21316;DHT22;10817;55.820;13.030;2024-03-08T03:29:04;-4.30;99.90
21316;DHT22;10817;55.820;13.030;2024-03-08T03:31:35;-4.30;99.90
21316;DHT22;10817;55.820;13.030;2024-03-08T03:34:02;-4.30;99.90
21316;DHT22;10817;55.820;13.030;2024-03-08T03:36:29;-4.40;99.90
21316;DHT22;10817;55.820;13.030;2024-03-08T03:38:56;-4.40;99.90
21316;DHT22;10817;55.820;13.030;2024-03-08T03:41:41;-4.40;99.90
21316;DHT22;10817;55.820;13.030;2024-03-08T03:44:10;-4.40;99.90
21316;DHT22;10817;55.820;13.030;2024-03-08T03:46:41;-4.40;99.90
21316;DHT22;10817;55.820;13.030;2024-03-08T03:49:09;-4.40;99.90
21316;DHT22;10817;55.820;13.030;2024-03-08T03:51:36;-4.30;99.90
21316;DHT22;10817;55.820;13.030;2024-03-08T03:54:03;-4.30;99.90
21316;DHT22;10817;55.820;13.030;2024-03-08T03:56:30;-4.40;99.90
21316;DHT22;10817;55.820;13.030;2024-03-08T04:02:52;-4.50;99.90
21316;DHT22;10817;55.820;13.030;2024-03-08T04:05:19;-4.40;99.90
21316;DHT22;10817;55.820;13.030;2024-03-08T04:07:45;-4.40;99.90
21316;DHT22;10817;55.820;13.030;2024-03-08T04:10:12;-4.30;99.90
21316;DHT22;10817;55.820;13.030;2024-03-08T04:12:40;-4.10;99.90
21316;DHT22;10817;55.820;13.030;2024-03-08T04:15:07;-4.00;99.90
21316;DHT22;10817;55.820;13.030;2024-03-08T04:17:36;-3.90;99.90
21316;DHT22;10817;55.820;13.030;2024-03-08T04:20:37;-4.00;99.90
21316;DHT22;10817;55.820;13.030;2024-03-08T04:23:05;-4.10;99.90
21316;DHT22;10817;55.820;13.030;2024-03-08T04:25:32;-4.20;99.90
21316;DHT22;10817;55.820;13.030;2024-03-08T04:27:59;-4.20;99.90
21316;DHT22;10817;55.820;13.030;2024-03-08T04:30:26;-4.10;99.90
21316;DHT22;10817;55.820;13.030;2024-03-08T04:32:54;-4.10;99.90
21316;DHT22;10817;55.820;13.030;2024-03-08T04:35:20;-4.10;99.90
21316;DHT22;10817;55.820;13.030;2024-03-08T04:37:48;-4.10;99.90
21316;DHT22;10817;55.820;13.030;2024-03-08T04:40:15;-4.10;99.90
21316;DHT22;10817;55.820;13.030;2024-03-08T04:42:42;-4.20;99.90
21316;DHT22;10817;55.820;13.030;2024-03-08T04:45:09;-4.10;99.90
21316;DHT22;10817;55.820;13.030;2024-03-08T04:47:36;-4.20;99.90
21316;DHT22;10817;55.820;13.030;2024-03-08T04:50:03;-4.30;99.90
21316;DHT22;10817;55.820;13.030;2024-03-08T04:52:31;-4.30;99.90
21316;DHT22;10817;55.820;13.030;2024-03-08T04:54:59;-4.40;99.90
21316;DHT22;10817;55.820;13.030;2024-03-08T04:57:26;-4.50;99.90
21316;DHT22;10817;55.820;13.030;2024-03-08T04:59:53;-4.60;99.90
21316;DHT22;10817;55.820;13.030;2024-03-08T05:02:20;-4.60;99.90
21316;DHT22;10817;55.820;13.030;2024-03-08T05:04:48;-4.70;99.90
21316;DHT22;10817;55.820;13.030;2024-03-08T05:07:15;-4.70;99.90
21316;DHT22;10817;55.820;13.030;2024-03-08T05:09:41;-4.70;99.90
21316;DHT22;10817;55.820;13.030;2024-03-08T05:12:09;-4.60;99.90
21316;DHT22;10817;55.820;13.030;2024-03-08T05:14:36;-4.40;99.90
21316;DHT22;10817;55.820;13.030;2024-03-08T05:17:03;-4.30;99.90
21316;DHT22;10817;55.820;13.030;2024-03-08T05:19:32;-4.40;99.90
21316;DHT22;10817;55.820;13.030;2024-03-08T05:21:59;-4.50;99.90
21316;DHT22;10817;55.820;13.030;2024-03-08T05:24:26;-4.40;99.90
21316;DHT22;10817;55.820;13.030;2024-03-08T05:26:52;-4.30;99.90
21316;DHT22;10817;55.820;13.030;2024-03-08T05:29:21;-4.30;99.90
21316;DHT22;10817;55.820;13.030;2024-03-08T05:31:49;-4.00;99.90
21316;DHT22;10817;55.820;13.030;2024-03-08T05:34:18;-3.70;99.90
21316;DHT22;10817;55.820;13.030;2024-03-08T05:36:47;-3.80;99.90
21316;DHT22;10817;55.820;13.030;2024-03-08T05:39:15;-3.50;99.90
21316;DHT22;10817;55.820;13.030;2024-03-08T05:41:42;-3.60;99.90
21316;DHT22;10817;55.820;13.030;2024-03-08T05:44:10;-3.60;99.90
21316;DHT22;10817;55.820;13.030;2024-03-08T05:46:38;-3.60;99.90
21316;DHT22;10817;55.820;13.030;2024-03-08T05:49:06;-3.70;99.90
21316;DHT22;10817;55.820;13.030;2024-03-08T05:51:37;-3.70;99.90
21316;DHT22;10817;55.820;13.030;2024-03-08T05:54:06;-3.70;99.90
21316;DHT22;10817;55.820;13.030;2024-03-08T05:56:34;-3.70;99.90
21316;DHT22;10817;55.820;13.030;2024-03-08T05:59:01;-3.80;99.90
21316;DHT22;10817;55.820;13.030;2024-03-08T06:01:29;-3.90;99.90
21316;DHT22;10817;55.820;13.030;2024-03-08T06:03:57;-3.90;99.90
21316;DHT22;10817;55.820;13.030;2024-03-08T06:06:24;-3.90;99.90
21316;DHT22;10817;55.820;13.030;2024-03-08T06:08:52;-4.00;99.90
21316;DHT22;10817;55.820;13.030;2024-03-08T06:11:19;-4.10;99.90
21316;DHT22;10817;55.820;13.030;2024-03-08T06:13:47;-4.10;99.90
21316;DHT22;10817;55.820;13.030;2024-03-08T06:16:18;-4.20;99.90
21316;DHT22;10817;55.820;13.030;2024-03-08T06:18:44;-4.20;99.90
21316;DHT22;10817;55.820;13.030;2024-03-08T06:21:13;-4.20;99.90
21316;DHT22;10817;55.820;13.030;2024-03-08T06:23:41;-4.30;99.90
21316;DHT22;10817;55.820;13.030;2024-03-08T06:26:08;-4.10;99.90
21316;DHT22;10817;55.820;13.030;2024-03-08T06:28:35;-3.90;99.90
21316;DHT22;10817;55.820;13.030;2024-03-08T06:31:02;-3.80;99.90
21316;DHT22;10817;55.820;13.030;2024-03-08T06:33:29;-3.70;99.90
21316;DHT22;10817;55.820;13.030;2024-03-08T06:35:57;-3.70;99.90
21316;DHT22;10817;55.820;13.030;2024-03-08T06:38:26;-3.70;99.90
21316;DHT22;10817;55.820;13.030;2024-03-08T06:40:53;-3.70;99.90
21316;DHT22;10817;55.820;13.030;2024-03-08T06:43:20;-3.60;99.90
21316;DHT22;10817;55.820;13.030;2024-03-08T06:45:47;-3.60;99.90
21316;DHT22;10817;55.820;13.030;2024-03-08T06:48:15;-3.40;99.90
21316;DHT22;10817;55.820;13.030;2024-03-08T06:50:42;-3.40;99.90
21316;DHT22;10817;55.820;13.030;2024-03-08T06:53:09;-3.30;99.90
21316;DHT22;10817;55.820;13.030;2024-03-08T06:55:38;-3.20;99.90
21316;DHT22;10817;55.820;13.030;2024-03-08T06:58:05;-3.10;99.90
21316;DHT22;10817;55.820;13.030;2024-03-08T07:00:32;-3.00;99.90
21316;DHT22;10817;55.820;13.030;2024-03-08T07:02:59;-2.90;99.90
21316;DHT22;10817;55.820;13.030;2024-03-08T07:05:27;-2.70;99.90
21316;DHT22;10817;55.820;13.030;2024-03-08T07:07:54;-2.60;99.90
21316;DHT22;10817;55.820;13.030;2024-03-08T07:10:21;-2.50;99.90
21316;DHT22;10817;55.820;13.030;2024-03-08T07:12:51;-2.40;99.90
21316;DHT22;10817;55.820;13.030;2024-03-08T07:15:20;-2.20;99.90
21316;DHT22;10817;55.820;13.030;2024-03-08T07:17:48;-2.00;99.90
21316;DHT22;10817;55.820;13.030;2024-03-08T07:20:18;-2.00;99.90
21316;DHT22;10817;55.820;13.030;2024-03-08T07:22:45;-2.00;99.90
21316;DHT22;10817;55.820;13.030;2024-03-08T07:25:13;-1.80;99.90
21316;DHT22;10817;55.820;13.030;2024-03-08T07:27:47;-1.80;99.90
21316;DHT22;10817;55.820;13.030;2024-03-08T07:30:15;-1.70;99.90
21316;DHT22;10817;55.820;13.030;2024-03-08T07:33:00;-1.50;99.90
21316;DHT22;10817;55.820;13.030;2024-03-08T07:35:27;-1.40;99.90
21316;DHT22;10817;55.820;13.030;2024-03-08T07:37:54;-1.30;99.90
21316;DHT22;10817;55.820;13.030;2024-03-08T07:40:21;-1.20;99.90
21316;DHT22;10817;55.820;13.030;2024-03-08T07:42:48;-1.10;99.90
21316;DHT22;10817;55.820;13.030;2024-03-08T07:45:17;-1.00;99.90
21316;DHT22;10817;55.820;13.030;2024-03-08T07:47:43;-0.90;99.90
21316;DHT22;10817;55.820;13.030;2024-03-08T07:50:11;-0.90;99.90
21316;DHT22;10817;55.820;13.030;2024-03-08T07:52:41;-0.70;99.90
21316;DHT22;10817;55.820;13.030;2024-03-08T07:55:09;-0.50;99.90
21316;DHT22;10817;55.820;13.030;2024-03-08T07:57:36;-0.50;99.90
21316;DHT22;10817;55.820;13.030;2024-03-08T08:00:05;-0.40;99.90
21316;DHT22;10817;55.820;13.030;2024-03-08T08:02:35;-0.30;99.90
21316;DHT22;10817;55.820;13.030;2024-03-08T08:05:02;-0.20;99.90
21316;DHT22;10817;55.820;13.030;2024-03-08T08:07:29;0.00;99.90
21316;DHT22;10817;55.820;13.030;2024-03-08T08:09:56;0.00;99.90
21316;DHT22;10817;55.820;13.030;2024-03-08T08:12:23;0.20;99.90
21316;DHT22;10817;55.820;13.030;2024-03-08T08:14:49;0.30;99.90
21316;DHT22;10817;55.820;13.030;2024-03-08T08:17:17;0.40;99.90
21316;DHT22;10817;55.820;13.030;2024-03-08T08:19:45;0.50;99.90
21316;DHT22;10817;55.820;13.030;2024-03-08T08:22:11;0.60;99.90
21316;DHT22;10817;55.820;13.030;2024-03-08T08:24:38;0.70;99.90
21316;DHT22;10817;55.820;13.030;2024-03-08T08:27:05;0.80;99.90
21316;DHT22;10817;55.820;13.030;2024-03-08T08:29:33;0.90;99.90
21316;DHT22;10817;55.820;13.030;2024-03-08T08:32:01;1.00;99.90
21316;DHT22;10817;55.820;13.030;2024-03-08T08:34:28;1.10;99.90
21316;DHT22;10817;55.820;13.030;2024-03-08T08:36:57;1.30;99.90
21316;DHT22;10817;55.820;13.030;2024-03-08T08:39:23;1.40;99.90
21316;DHT22;10817;55.820;13.030;2024-03-08T08:41:51;1.50;99.90
21316;DHT22;10817;55.820;13.030;2024-03-08T08:44:18;1.70;99.90
21316;DHT22;10817;55.820;13.030;2024-03-08T08:46:44;1.80;99.90
21316;DHT22;10817;55.820;13.030;2024-03-08T08:49:11;2.00;99.90
21316;DHT22;10817;55.820;13.030;2024-03-08T08:51:40;2.20;99.90
21316;DHT22;10817;55.820;13.030;2024-03-08T08:54:08;2.50;99.90
21316;DHT22;10817;55.820;13.030;2024-03-08T08:56:35;2.70;99.90
21316;DHT22;10817;55.820;13.030;2024-03-08T08:59:02;2.90;99.90
21316;DHT22;10817;55.820;13.030;2024-03-08T09:01:30;3.00;99.90
21316;DHT22;10817;55.820;13.030;2024-03-08T09:03:57;3.20;99.90
21316;DHT22;10817;55.820;13.030;2024-03-08T09:06:23;3.40;99.90
21316;DHT22;10817;55.820;13.030;2024-03-08T09:08:50;3.60;99.90
21316;DHT22;10817;55.820;13.030;2024-03-08T09:11:19;3.90;99.90
21316;DHT22;10817;55.820;13.030;2024-03-08T09:13:46;4.20;99.90
21316;DHT22;10817;55.820;13.030;2024-03-08T09:16:14;4.80;99.90
21316;DHT22;10817;55.820;13.030;2024-03-08T09:18:41;3.80;99.90
21316;DHT22;10817;55.820;13.030;2024-03-08T09:21:08;3.60;99.90
21316;DHT22;10817;55.820;13.030;2024-03-08T09:23:35;3.60;99.90
21316;DHT22;10817;55.820;13.030;2024-03-08T09:26:02;3.60;99.90
21316;DHT22;10817;55.820;13.030;2024-03-08T09:28:31;4.20;99.90
21316;DHT22;10817;55.820;13.030;2024-03-08T09:30:57;5.70;99.90
21316;DHT22;10817;55.820;13.030;2024-03-08T09:33:26;7.50;99.90
21316;DHT22;10817;55.820;13.030;2024-03-08T09:35:54;8.90;99.90
21316;DHT22;10817;55.820;13.030;2024-03-08T09:38:23;9.50;99.90
21316;DHT22;10817;55.820;13.030;2024-03-08T09:40:50;10.00;99.90
21316;DHT22;10817;55.820;13.030;2024-03-08T09:43:18;10.50;99.90
21316;DHT22;10817;55.820;13.030;2024-03-08T09:45:49;11.50;99.90
21316;DHT22;10817;55.820;13.030;2024-03-08T09:48:17;11.60;99.90
21316;DHT22;10817;55.820;13.030;2024-03-08T09:50:45;12.90;99.90
21316;DHT22;10817;55.820;13.030;2024-03-08T09:53:12;13.70;99.90
21316;DHT22;10817;55.820;13.030;2024-03-08T09:55:39;13.90;99.90
21316;DHT22;10817;55.820;13.030;2024-03-08T09:58:09;14.30;99.90
21316;DHT22;10817;55.820;13.030;2024-03-08T10:01:15;15.40;99.90
21316;DHT22;10817;55.820;13.030;2024-03-08T10:03:44;14.90;99.90
21316;DHT22;10817;55.820;13.030;2024-03-08T10:06:10;14.70;99.70
21316;DHT22;10817;55.820;13.030;2024-03-08T10:08:37;14.50;99.20
21316;DHT22;10817;55.820;13.030;2024-03-08T10:11:05;14.30;99.80
21316;DHT22;10817;55.820;13.030;2024-03-08T10:13:32;14.30;99.70
21316;DHT22;10817;55.820;13.030;2024-03-08T10:16:00;14.30;99.90
21316;DHT22;10817;55.820;13.030;2024-03-08T10:18:28;14.90;99.10
21316;DHT22;10817;55.820;13.030;2024-03-08T10:21:06;15.90;97.30
21316;DHT22;10817;55.820;13.030;2024-03-08T10:23:34;16.60;95.20
21316;DHT22;10817;55.820;13.030;2024-03-08T10:26:10;17.00;94.10
21316;DHT22;10817;55.820;13.030;2024-03-08T10:28:40;16.60;90.70
21316;DHT22;10817;55.820;13.030;2024-03-08T10:31:07;17.10;92.10
21316;DHT22;10817;55.820;13.030;2024-03-08T10:33:36;17.20;90.80
21316;DHT22;10817;55.820;13.030;2024-03-08T10:36:07;16.90;91.00
21316;DHT22;10817;55.820;13.030;2024-03-08T10:38:36;16.90;91.40
21316;DHT22;10817;55.820;13.030;2024-03-08T10:41:05;17.10;91.30
21316;DHT22;10817;55.820;13.030;2024-03-08T10:43:36;18.10;88.90
21316;DHT22;10817;55.820;13.030;2024-03-08T10:46:15;18.70;85.90
21316;DHT22;10817;55.820;13.030;2024-03-08T10:48:49;18.30;83.40
21316;DHT22;10817;55.820;13.030;2024-03-08T10:51:16;18.20;84.10
21316;DHT22;10817;55.820;13.030;2024-03-08T10:53:46;17.80;80.20
21316;DHT22;10817;55.820;13.030;2024-03-08T10:56:14;18.00;78.50
21316;DHT22;10817;55.820;13.030;2024-03-08T10:58:42;19.10;56.80
21316;DHT22;10817;55.820;13.030;2024-03-08T11:01:10;19.10;1.00
21316;DHT22;10817;55.820;13.030;2024-03-08T11:03:45;16.90;1.00
21316;DHT22;10817;55.820;13.030;2024-03-08T11:06:16;16.40;97.30
21316;DHT22;10817;55.820;13.030;2024-03-08T11:08:44;16.90;99.90
21316;DHT22;10817;55.820;13.030;2024-03-08T11:11:24;16.60;99.90
21316;DHT22;10817;55.820;13.030;2024-03-08T11:13:56;16.20;99.90
21316;DHT22;10817;55.820;13.030;2024-03-08T11:16:39;16.70;99.90
21316;DHT22;10817;55.820;13.030;2024-03-08T11:19:25;17.10;99.90
21316;DHT22;10817;55.820;13.030;2024-03-08T11:22:03;17.20;1.00
21316;DHT22;10817;55.820;13.030;2024-03-08T11:24:38;17.50;1.00
21316;DHT22;10817;55.820;13.030;2024-03-08T11:27:06;17.70;1.00
21316;DHT22;10817;55.820;13.030;2024-03-08T11:29:38;17.70;1.00
21316;DHT22;10817;55.820;13.030;2024-03-08T11:32:10;16.80;99.90
21316;DHT22;10817;55.820;13.030;2024-03-08T11:34:40;17.90;1.00
21316;DHT22;10817;55.820;13.030;2024-03-08T11:37:12;19.00;99.90
21316;DHT22;10817;55.820;13.030;2024-03-08T11:39:45;18.30;99.90
21316;DHT22;10817;55.820;13.030;2024-03-08T11:42:12;18.60;99.90
21316;DHT22;10817;55.820;13.030;2024-03-08T11:44:39;19.70;99.90
21316;DHT22;10817;55.820;13.030;2024-03-08T11:47:10;19.00;99.90
21316;DHT22;10817;55.820;13.030;2024-03-08T11:49:38;19.30;99.90
21316;DHT22;10817;55.820;13.030;2024-03-08T11:52:10;19.00;99.90
21316;DHT22;10817;55.820;13.030;2024-03-08T11:54:39;19.20;99.90
21316;DHT22;10817;55.820;13.030;2024-03-08T11:57:05;18.80;99.90
21316;DHT22;10817;55.820;13.030;2024-03-08T11:59:32;18.00;99.90
21316;DHT22;10817;55.820;13.030;2024-03-08T12:02:01;18.10;99.90
21316;DHT22;10817;55.820;13.030;2024-03-08T12:04:29;16.80;1.00
21316;DHT22;10817;55.820;13.030;2024-03-08T12:06:59;17.30;1.00
21316;DHT22;10817;55.820;13.030;2024-03-08T12:09:27;17.50;1.00
21316;DHT22;10817;55.820;13.030;2024-03-08T12:11:54;17.30;1.00
21316;DHT22;10817;55.820;13.030;2024-03-08T12:14:21;17.90;99.90
21316;DHT22;10817;55.820;13.030;2024-03-08T12:16:50;18.00;99.90
21316;DHT22;10817;55.820;13.030;2024-03-08T12:19:17;17.70;1.00
21316;DHT22;10817;55.820;13.030;2024-03-08T12:21:44;17.80;99.90
21316;DHT22;10817;55.820;13.030;2024-03-08T12:24:16;18.00;1.00
21316;DHT22;10817;55.820;13.030;2024-03-08T12:26:46;18.90;1.00
21316;DHT22;10817;55.820;13.030;2024-03-08T12:29:21;19.00;99.90
21316;DHT22;10817;55.820;13.030;2024-03-08T12:31:51;19.10;99.90
21316;DHT22;10817;55.820;13.030;2024-03-08T12:34:19;19.50;99.90
21316;DHT22;10817;55.820;13.030;2024-03-08T12:36:47;19.60;99.90
21316;DHT22;10817;55.820;13.030;2024-03-08T12:39:17;19.80;99.90
21316;DHT22;10817;55.820;13.030;2024-03-08T12:41:48;18.70;99.90
21316;DHT22;10817;55.820;13.030;2024-03-08T12:44:14;18.40;99.90
21316;DHT22;10817;55.820;13.030;2024-03-08T12:46:44;19.40;99.90
21316;DHT22;10817;55.820;13.030;2024-03-08T12:49:11;19.00;99.90
21316;DHT22;10817;55.820;13.030;2024-03-08T12:51:38;19.20;99.90
21316;DHT22;10817;55.820;13.030;2024-03-08T12:54:07;19.60;99.90
21316;DHT22;10817;55.820;13.030;2024-03-08T12:56:36;19.60;99.90
21316;DHT22;10817;55.820;13.030;2024-03-08T12:59:04;19.00;99.90
21316;DHT22;10817;55.820;13.030;2024-03-08T13:01:31;19.10;99.90
21316;DHT22;10817;55.820;13.030;2024-03-08T13:03:58;19.60;99.90
21316;DHT22;10817;55.820;13.030;2024-03-08T13:06:26;20.20;99.90
21316;DHT22;10817;55.820;13.030;2024-03-08T13:08:54;20.70;87.20
21316;DHT22;10817;55.820;13.030;2024-03-08T13:11:21;20.10;46.50
21316;DHT22;10817;55.820;13.030;2024-03-08T13:13:50;20.20;90.90
21316;DHT22;10817;55.820;13.030;2024-03-08T13:16:18;19.60;96.90
21316;DHT22;10817;55.820;13.030;2024-03-08T13:18:45;19.40;99.90
21316;DHT22;10817;55.820;13.030;2024-03-08T13:21:14;19.70;99.90
21316;DHT22;10817;55.820;13.030;2024-03-08T13:23:44;20.60;53.30
21316;DHT22;10817;55.820;13.030;2024-03-08T13:26:15;20.30;80.30
21316;DHT22;10817;55.820;13.030;2024-03-08T13:28:42;19.20;99.90
21316;DHT22;10817;55.820;13.030;2024-03-08T13:31:11;19.50;99.90
21316;DHT22;10817;55.820;13.030;2024-03-08T13:33:38;18.90;99.90
21316;DHT22;10817;55.820;13.030;2024-03-08T13:36:07;18.50;99.90
21316;DHT22;10817;55.820;13.030;2024-03-08T13:38:42;18.20;99.90
21316;DHT22;10817;55.820;13.030;2024-03-08T13:41:10;17.70;1.00
21316;DHT22;10817;55.820;13.030;2024-03-08T13:43:40;17.80;99.90
21316;DHT22;10817;55.820;13.030;2024-03-08T13:46:07;18.00;99.90
21316;DHT22;10817;55.820;13.030;2024-03-08T13:48:37;17.40;99.90
21316;DHT22;10817;55.820;13.030;2024-03-08T13:51:04;17.50;1.00
21316;DHT22;10817;55.820;13.030;2024-03-08T13:53:32;17.60;1.00
21316;DHT22;10817;55.820;13.030;2024-03-08T13:56:00;18.40;99.90
21316;DHT22;10817;55.820;13.030;2024-03-08T13:58:27;17.60;99.90
21316;DHT22;10817;55.820;13.030;2024-03-08T14:00:54;18.00;99.90
21316;DHT22;10817;55.820;13.030;2024-03-08T14:03:21;17.40;1.00
21316;DHT22;10817;55.820;13.030;2024-03-08T14:05:50;17.50;1.00
21316;DHT22;10817;55.820;13.030;2024-03-08T14:08:17;17.90;1.00
21316;DHT22;10817;55.820;13.030;2024-03-08T14:10:44;16.20;1.00
21316;DHT22;10817;55.820;13.030;2024-03-08T14:13:12;17.10;99.90
21316;DHT22;10817;55.820;13.030;2024-03-08T14:15:41;16.40;99.90
21316;DHT22;10817;55.820;13.030;2024-03-08T14:18:11;15.50;99.90
21316;DHT22;10817;55.820;13.030;2024-03-08T14:20:39;15.40;1.00
21316;DHT22;10817;55.820;13.030;2024-03-08T14:23:09;15.10;5.60
21316;DHT22;10817;55.820;13.030;2024-03-08T14:25:36;14.70;99.90
21316;DHT22;10817;55.820;13.030;2024-03-08T14:28:03;15.30;99.90
21316;DHT22;10817;55.820;13.030;2024-03-08T14:30:33;15.30;99.90
21316;DHT22;10817;55.820;13.030;2024-03-08T14:33:00;15.60;99.90
21316;DHT22;10817;55.820;13.030;2024-03-08T14:35:27;15.50;99.90
21316;DHT22;10817;55.820;13.030;2024-03-08T14:37:55;15.60;1.00
21316;DHT22;10817;55.820;13.030;2024-03-08T14:40:24;15.20;99.90
21316;DHT22;10817;55.820;13.030;2024-03-08T14:42:51;16.20;1.00
21316;DHT22;10817;55.820;13.030;2024-03-08T14:45:18;16.50;98.70
21316;DHT22;10817;55.820;13.030;2024-03-08T14:47:45;16.40;90.60
21316;DHT22;10817;55.820;13.030;2024-03-08T14:50:15;16.50;55.90
21316;DHT22;10817;55.820;13.030;2024-03-08T14:52:42;16.30;99.90
21316;DHT22;10817;55.820;13.030;2024-03-08T14:55:10;16.20;99.90
21316;DHT22;10817;55.820;13.030;2024-03-08T14:57:41;15.90;99.90
21316;DHT22;10817;55.820;13.030;2024-03-08T15:00:12;15.30;99.90
21316;DHT22;10817;55.820;13.030;2024-03-08T15:02:43;15.60;1.00
21316;DHT22;10817;55.820;13.030;2024-03-08T15:05:10;15.50;1.00
21316;DHT22;10817;55.820;13.030;2024-03-08T15:07:38;14.90;1.00
21316;DHT22;10817;55.820;13.030;2024-03-08T15:10:07;14.80;99.90
21316;DHT22;10817;55.820;13.030;2024-03-08T15:12:37;14.60;3.70
21316;DHT22;10817;55.820;13.030;2024-03-08T15:15:07;14.40;99.90
21316;DHT22;10817;55.820;13.030;2024-03-08T15:17:36;14.00;99.90
21316;DHT22;10817;55.820;13.030;2024-03-08T15:20:06;13.00;99.90
21316;DHT22;10817;55.820;13.030;2024-03-08T15:22:42;13.50;99.90
21316;DHT22;10817;55.820;13.030;2024-03-08T15:25:10;13.70;76.30
21316;DHT22;10817;55.820;13.030;2024-03-08T15:27:43;13.70;26.30
21316;DHT22;10817;55.820;13.030;2024-03-08T15:30:11;13.90;99.90